DW9443 Weather Reports


Display with metric or nautical units.
time (UTC)temp
F
wind
direction
speed
MPH
gust
MPH
rain 1hr
in
rain 24hr
in
rain mn
in
humidity
%
barometer
mb
20190124024712 38 111 16.0 0.0 0.00 0.00 0.00 72 1006.3
20190124023133 38 90 14.0 0.0 0.00 0.00 0.00 72 1006.0
20190124021612 38 107 17.0 0.0 0.00 0.00 0.00 73 1005.9
20190124020120 39 101 17.0 0.0 0.00 0.00 0.00 70 1005.4
20190124014615 38 111 17.0 0.0 0.00 0.00 0.00 70 1005.0
20190124013055 39 96 14.0 0.0 0.00 0.00 0.00 69 1004.5
20190124011603 39 98 14.0 0.0 0.00 0.00 0.00 69 1004.5
20190124010105 39 96 15.0 0.0 0.00 0.00 0.00 67 1003.8
20190124004528 40 101 8.0 0.0 0.00 0.00 0.00 67 1004.0
20190124003038 37 153 3.0 0.0 0.00 0.00 0.00 74 1003.9
20190124001548 36 88 5.0 0.0 0.00 0.00 0.00 72 1003.6
20190124000040 40 109 4.0 0.0 0.00 0.00 0.00 67 1003.7
20190123234540 39 191 7.0 0.0 0.00 0.00 0.00 68 1003.6
20190123233130 37 188 0.0 0.0 0.00 0.00 0.00 72 1003.6
20190123231532 35 195 4.0 0.0 0.00 0.00 0.00 77 1003.9
20190123230034 35 169 2.0 0.0 0.00 0.00 0.00 77 1004.0
20190123224542 32 18 5.0 0.0 0.00 0.00 0.00 82 1003.7
20190123223058 32 36 3.0 0.0 0.00 0.00 0.00 82 1003.6
20190123221612 31 5 4.0 0.0 0.00 0.00 0.00 82 1003.8
20190123220055 33 326 4.0 0.0 0.00 0.00 0.00 80 1003.3
20190123214532 34 230 1.0 0.0 0.00 0.00 0.00 82 1002.3
20190123213102 31 11 2.0 0.0 0.00 0.00 0.00 81 1002.2
20190123211612 35 338 5.0 0.0 0.00 0.00 0.00 73 1001.8
20190123210037 34 159 1.0 0.0 0.00 0.00 0.00 80 1001.9
20190123204538 31 180 3.0 0.0 0.00 0.00 0.00 84 1002.7
20190123203032 31 19 3.0 0.0 0.00 0.00 0.00 84 1002.1
20190123201534 31 326 2.0 0.0 0.00 0.00 0.00 85 1001.8
20190123200023 30 91 1.0 0.0 0.00 0.00 0.00 86 1001.7
20190123194557 29 102 3.0 0.0 0.00 0.00 0.00 86 1001.6
20190123193048 30 280 4.0 0.0 0.00 0.00 0.00 83 1001.6
20190123191515 30 250 3.0 0.0 0.00 0.00 0.00 82 1001.9
20190123190017 31 281 4.0 0.0 0.00 0.00 0.00 85 1001.7
20190123184525 34 32 4.0 0.0 0.00 0.00 0.00 75 1001.3
20190123183010 34 340 3.0 0.0 0.00 0.00 0.00 79 1001.3
20190123181527 33 318 2.0 0.0 0.00 0.00 0.00 81 1001.6
20190123180010 32 39 3.0 0.0 0.00 0.00 0.00 80 1001.8
20190123174510 32 316 1.0 0.0 0.00 0.00 0.00 81 1002.1
20190123173006 31 74 2.0 0.0 0.00 0.00 0.00 81 1002.0
20190123171512 30 192 2.0 0.0 0.00 0.00 0.00 82 1002.2
20190123170004 29 311 4.0 0.0 0.00 0.00 0.00 81 1002.2
20190123164502 31 338 2.0 0.0 0.00 0.00 0.00 77 1002.4
20190123163413 31 248 2.0 0.0 0.00 0.00 0.00 80 1002.4
20190123161618 30 95 1.0 0.0 0.00 0.00 0.00 78 1002.7
20190123160218 38 228 2.0 0.0 0.00 0.00 0.00 72 1002.7
20190123154642 36 75 2.0 0.0 0.00 0.00 0.00 74 1003.0
20190123153240 35 318 2.0 0.0 0.00 0.00 0.00 70 1003.3
20190123151628 39 285 2.0 0.0 0.00 0.00 0.00 67 1003.8
20190123150054 27 124 0.0 0.0 0.00 0.00 0.00 81 1004.3
20190123144724 28 16 1.0 0.0 0.00 0.00 0.00 81 1004.5
20190123143127 28 312 1.0 0.0 0.00 0.00 0.00 80 1004.4
20190123141652 28 134 1.0 0.0 0.00 0.00 0.00 80 1004.6
20190123140132 27 303 2.0 0.0 0.00 0.00 0.00 80 1004.8
20190123134636 27 127 2.0 0.0 0.00 0.00 0.00 80 1004.9
20190123133104 27 340 2.0 0.0 0.00 0.00 0.00 80 1005.2
20190123131557 27 35 2.0 0.0 0.00 0.00 0.00 81 1005.0
20190123130159 27 34 3.0 0.0 0.00 0.00 0.00 81 1005.1
20190123124641 27 132 3.0 0.0 0.00 0.00 0.00 79 1005.2
20190123123059 27 277 2.0 0.0 0.00 0.00 0.00 80 1005.3
20190123121618 26 248 2.0 0.0 0.00 0.00 0.00 80 1005.5
20190123120122 26 232 2.0 0.0 0.00 0.00 0.00 80 1005.6
20190123114616 26 74 3.0 0.0 0.00 0.00 0.00 80 1005.9
20190123111642 0 0.0 0.0 0.00 0.00 0.00 1005.8
20190123110103 0 0.0 0.0 0.00 0.00 0.00 1005.4
20190123104559 0 0.0 0.0 0.00 0.00 0.00 1005.8
20190123103039 0 0.0 0.0 0.00 0.00 0.00 1006.6
20190123101522 0 0.0 0.0 0.00 0.00 0.00 1006.3
20190123100011 0 0.0 0.0 0.00 0.00 0.00 1006.5
20190123094504 0 0.0 0.0 0.00 0.00 0.00 1006.5
20190123093210 0 0.0 0.0 0.00 0.00 0.00 1006.7
20190123091633 0 0.0 0.0 0.00 0.00 0.00 1006.8
20190123090115 0 0.0 0.0 0.00 0.00 0.00 1006.5
20190123084604 0 0.0 0.0 0.00 0.00 0.00 1006.7
20190123083144 0 0.0 0.0 0.00 0.00 0.00 1006.7
20190123081610 0 0.0 0.0 0.00 0.00 0.00 1006.7
20190123080132 0 0.0 0.0 0.00 0.00 0.00 1006.7
20190123074558 0 0.0 0.0 0.00 0.00 0.00 1006.9
20190123073033 0 0.0 0.0 0.00 0.00 0.00 1006.4
20190123071533 0 0.0 0.0 0.00 0.00 0.00 1006.7
20190123070018 0 0.0 0.0 0.00 0.00 0.00 1006.7
20190123064522 0 0.0 0.0 0.00 0.00 0.00 1006.8
20190123063012 0 0.0 0.0 0.00 0.00 0.00 1006.9
20190123061513 25 221 0.0 0.0 0.00 0.00 0.00 80 1006.7
20190123060005 25 329 2.0 0.0 0.00 0.00 0.00 80 1007.2
20190123054506 25 327 2.0 0.0 0.00 0.00 0.00 79 1006.9
20190123053003 25 84 1.0 0.0 0.00 0.00 0.00 79 1007.0
20190123051505 25 5 1.0 0.0 0.00 0.00 0.00 80 1007.1
20190123050010 26 342 4.0 0.0 0.00 0.00 0.00 77 1007.3
20190123044502 26 340 5.0 0.0 0.00 0.00 0.00 79 1007.2
20190123043001 25 322 3.0 0.0 0.00 0.00 0.00 78 1007.4
20190123041643 25 19 3.0 0.0 0.00 0.00 0.00 78 1007.7
20190123040223 25 30 3.0 0.0 0.00 0.00 0.00 77 1007.6
20190123034656 27 102 2.0 0.0 0.00 0.00 0.00 80 1008.1
20190123033142 25 76 1.0 0.0 0.00 0.00 0.00 79 1007.7
20190123031737 25 51 2.0 0.0 0.00 0.00 0.00 80 1007.8
20190123030202 25 76 1.0 0.0 0.00 0.00 0.00 80 1007.9